Time;durP1;ratioP1;P1;durP2;ratioP2;P2;SDS_P1;SDS_P2;PMS_P1;PMS_P2;Temp;Humidity;BMP_temperature;BMP_pressure;BME280_temperature;BME280_humidity;BME280_pressure;Samples;Min_cycle;Max_cycle;Signal;HPM_P1;HPM_P2
2021/09/09 00:00:13;;;;;;;11.93;7.97;;;;;;;17.20;58.20;92830.38;2058350;69;20153;-74
2021/09/09 00:02:41;;;;;;;15.85;8.70;;;;;;;16.82;58.71;92835.31;2057627;69;20135;-74
2021/09/09 00:05:10;;;;;;;12.00;8.25;;;;;;;16.98;58.17;92821.72;2057571;69;20177;-74
2021/09/09 00:07:36;;;;;;;10.95;8.45;;;;;;;17.07;58.42;92836.25;2057796;69;20306;-74
2021/09/09 00:10:04;;;;;;;10.95;8.00;;;;;;;17.09;57.95;92837.09;2058013;69;20140;-74
2021/09/09 00:12:30;;;;;;;9.50;7.80;;;;;;;17.27;56.49;92831.34;2057698;69;20204;-74
2021/09/09 00:14:56;;;;;;;13.27;8.05;;;;;;;17.32;55.68;92830.13;2058296;69;20605;-75
2021/09/09 00:17:22;;;;;;;13.82;8.82;;;;;;;17.11;57.20;92833.56;2057623;69;20197;-74
2021/09/09 00:19:48;;;;;;;12.35;8.63;;;;;;;17.03;58.04;92833.97;2058170;69;20237;-74
2021/09/09 00:22:18;;;;;;;13.40;8.45;;;;;;;17.01;58.28;92828.22;2058032;69;20142;-74
2021/09/09 00:24:43;;;;;;;11.68;8.55;;;;;;;16.94;58.70;92824.41;2057962;69;20142;-74
2021/09/09 00:27:11;;;;;;;14.25;8.85;;;;;;;17.01;57.59;92819.69;2057949;69;20146;-74
2021/09/09 00:29:38;;;;;;;10.60;8.90;;;;;;;16.99;57.73;92825.28;2057342;69;20144;-74
2021/09/09 00:32:04;;;;;;;15.07;8.40;;;;;;;17.06;57.45;92829.84;2057880;69;20150;-74
2021/09/09 00:34:31;;;;;;;12.57;8.13;;;;;;;17.01;57.98;92831.81;2057788;69;20153;-74
2021/09/09 00:36:57;;;;;;;10.55;8.02;;;;;;;16.89;59.18;92830.59;2057916;69;20165;-74
2021/09/09 00:39:23;;;;;;;12.55;8.68;;;;;;;17.15;57.14;92828.03;2057809;69;20245;-75
2021/09/09 00:41:49;;;;;;;12.05;8.45;;;;;;;16.88;58.80;92818.47;2057991;69;20264;-74
2021/09/09 00:44:23;;;;;;;10.48;7.65;;;;;;;17.09;57.41;92831.41;2058138;69;20272;-74
2021/09/09 00:46:58;;;;;;;11.98;8.90;;;;;;;16.52;59.74;92831.94;2058168;69;20156;-75
2021/09/09 00:49:24;;;;;;;12.68;8.50;;;;;;;16.75;59.41;92834.31;2058418;69;20213;-75
2021/09/09 00:51:53;;;;;;;12.07;8.20;;;;;;;16.68;58.74;92834.72;2058325;69;20161;-74
2021/09/09 00:54:20;;;;;;;11.30;7.82;;;;;;;16.71;58.66;92825.59;2058360;69;20235;-73
2021/09/09 00:56:47;;;;;;;12.38;8.70;;;;;;;16.85;58.28;92827.59;2058310;69;20150;-74
2021/09/09 00:59:13;;;;;;;11.77;8.55;;;;;;;16.78;58.42;92835.16;2058199;69;20142;-74
2021/09/09 01:01:40;;;;;;;10.48;8.55;;;;;;;16.88;56.86;92829.84;2058282;69;20196;-73
2021/09/09 01:04:05;;;;;;;13.35;8.07;;;;;;;16.90;58.57;92823.50;2058222;69;20154;-74
2021/09/09 01:06:31;;;;;;;14.18;8.88;;;;;;;16.64;59.58;92826.75;2057703;69;20137;-74
2021/09/09 01:08:57;;;;;;;12.38;8.73;;;;;;;16.89;55.98;92819.94;2057686;69;20168;-74
2021/09/09 01:11:23;;;;;;;12.55;8.60;;;;;;;16.81;57.59;92825.31;2057962;69;20172;-74
2021/09/09 01:13:53;;;;;;;11.95;8.27;;;;;;;16.68;60.26;92832.59;2058281;69;20610;-74
2021/09/09 01:16:19;;;;;;;12.93;9.20;;;;;;;16.71;59.50;92828.44;2058210;69;20158;-74
2021/09/09 01:18:45;;;;;;;11.95;8.60;;;;;;;16.72;59.23;92835.63;2057278;69;20513;-75
2021/09/09 01:21:10;;;;;;;12.48;9.02;;;;;;;16.74;59.13;92830.03;2057782;69;20590;-75
2021/09/09 01:23:37;;;;;;;13.43;8.85;;;;;;;16.85;58.90;92838.94;2057950;69;20141;-74
2021/09/09 01:26:05;;;;;;;16.00;8.70;;;;;;;16.79;59.10;92835.88;2058063;69;20288;-74
2021/09/09 01:28:31;;;;;;;11.27;8.65;;;;;;;16.79;59.50;92847.97;2058044;69;20990;-73
2021/09/09 01:30:57;;;;;;;10.90;8.77;;;;;;;16.87;58.09;92836.94;2058124;69;20253;-75
2021/09/09 01:33:22;;;;;;;13.85;9.20;;;;;;;16.76;59.15;92841.47;2057949;69;20156;-74
2021/09/09 01:35:48;;;;;;;12.98;8.73;;;;;;;16.82;59.15;92843.13;2058076;69;20154;-75
2021/09/09 01:38:22;;;;;;;11.05;8.77;;;;;;;16.75;58.48;92845.69;2058123;69;20181;-74
2021/09/09 01:40:48;;;;;;;12.90;8.85;;;;;;;16.78;58.68;92849.34;2057896;69;20191;-73
2021/09/09 01:43:13;;;;;;;13.73;8.93;;;;;;;16.64;59.04;92840.25;2057660;69;20146;-74
2021/09/09 01:45:39;;;;;;;14.00;9.25;;;;;;;16.62;59.23;92842.97;2058033;69;20542;-74
2021/09/09 01:48:05;;;;;;;11.30;9.10;;;;;;;16.63;59.29;92842.34;2057302;69;20165;-73
2021/09/09 01:50:31;;;;;;;13.52;9.10;;;;;;;16.43;60.89;92835.81;2057362;69;20154;-73
2021/09/09 01:52:56;;;;;;;11.48;9.18;;;;;;;16.53;60.20;92844.75;2057946;69;20180;-74
2021/09/09 01:55:22;;;;;;;14.35;8.82;;;;;;;16.54;59.30;92843.41;2057818;69;20154;-73
2021/09/09 01:57:48;;;;;;;12.98;9.32;;;;;;;16.59;57.83;92845.03;2060826;69;20200;-73
2021/09/09 02:00:14;;;;;;;12.82;8.75;;;;;;;16.58;59.26;92837.84;2060989;69;20240;-73
2021/09/09 02:02:43;;;;;;;12.52;8.60;;;;;;;16.49;59.87;92836.81;2061375;69;20152;-73
2021/09/09 02:05:12;;;;;;;11.68;8.73;;;;;;;16.43;59.92;92836.56;2060992;69;20141;-73
2021/09/09 02:07:38;;;;;;;11.15;8.48;;;;;;;16.42;59.95;92840.03;2060657;69;20628;-73
2021/09/09 02:10:05;;;;;;;10.40;8.38;;;;;;;16.38;60.00;92837.03;2060470;69;20134;-73
2021/09/09 02:12:31;;;;;;;11.32;8.40;;;;;;;15.99;60.98;92836.16;2061597;69;20141;-73
2021/09/09 02:14:57;;;;;;;13.07;8.50;;;;;;;16.33;58.11;92841.81;2061591;69;20261;-73
2021/09/09 02:17:22;;;;;;;13.43;8.65;;;;;;;16.35;59.48;92836.22;2061443;69;20614;-73
2021/09/09 02:19:48;;;;;;;12.93;8.45;;;;;;;16.12;60.33;92834.53;2061209;69;20172;-73
2021/09/09 02:22:14;;;;;;;14.80;8.93;;;;;;;16.06;60.14;92839.97;2061164;69;20149;-73
2021/09/09 02:24:48;;;;;;;11.60;8.95;;;;;;;16.14;59.72;92840.31;2061470;69;20152;-72
2021/09/09 02:27:17;;;;;;;12.38;8.60;;;;;;;16.01;60.58;92838.34;2061663;69;20141;-73
2021/09/09 02:29:43;;;;;;;12.23;8.90;;;;;;;16.05;60.45;92838.50;2061939;69;20598;-73
2021/09/09 02:32:09;;;;;;;11.77;9.20;;;;;;;15.96;60.62;92848.06;2061822;69;20137;-73
2021/09/09 02:34:36;;;;;;;11.82;9.10;;;;;;;15.84;61.25;92839.00;2061938;69;20239;-73
2021/09/09 02:37:01;;;;;;;12.52;8.77;;;;;;;15.73;61.88;92837.84;2061565;69;20894;-73
2021/09/09 02:39:27;;;;;;;12.00;9.00;;;;;;;15.79;61.50;92838.09;2061938;69;20252;-73
2021/09/09 02:41:52;;;;;;;11.25;9.20;;;;;;;15.66;62.12;92836.81;2060958;69;20184;-72
2021/09/09 02:44:18;;;;;;;12.75;8.57;;;;;;;15.80;61.96;92842.41;2061847;69;20136;-74
2021/09/09 02:46:44;;;;;;;12.55;9.15;;;;;;;15.78;61.47;92844.44;2061965;69;20161;-73
2021/09/09 02:49:09;;;;;;;11.95;9.10;;;;;;;15.82;61.49;92833.97;2061970;69;20233;-75
2021/09/09 02:51:35;;;;;;;13.23;9.00;;;;;;;15.71;62.24;92834.91;2061376;69;20132;-74
2021/09/09 02:54:01;;;;;;;12.48;9.68;;;;;;;15.40;63.41;92844.16;2061463;69;20610;-73
2021/09/09 02:56:26;;;;;;;12.65;9.60;;;;;;;15.57;62.53;92839.91;2061938;69;20236;-74
2021/09/09 02:58:52;;;;;;;12.60;9.18;;;;;;;15.68;61.15;92828.41;2061991;69;20141;-74
2021/09/09 03:01:18;;;;;;;12.00;8.90;;;;;;;15.64;61.81;92833.91;2061893;69;20657;-74
2021/09/09 03:03:43;;;;;;;17.77;11.95;;;;;;;15.63;62.56;92831.69;2061992;69;20533;-74
2021/09/09 03:06:09;;;;;;;19.90;13.77;;;;;;;15.51;62.73;92824.09;2062017;69;20145;-74
2021/09/09 03:08:35;;;;;;;23.10;16.25;;;;;;;15.56;62.96;92827.13;2061828;69;20223;-75
2021/09/09 03:11:01;;;;;;;25.80;18.38;;;;;;;15.39;62.18;92817.88;2061874;69;20620;-75
2021/09/09 03:13:27;;;;;;;21.92;15.77;;;;;;;15.67;61.15;92829.06;2061951;69;20156;-75
2021/09/09 03:15:53;;;;;;;19.25;14.73;;;;;;;15.41;62.79;92829.31;2061950;69;20145;-75
2021/09/09 03:18:19;;;;;;;16.75;12.70;;;;;;;15.43;61.82;92818.06;2061939;69;20223;-74
2021/09/09 03:20:44;;;;;;;17.02;13.30;;;;;;;15.42;62.04;92821.53;2061917;69;20157;-74
2021/09/09 03:23:10;;;;;;;15.68;11.40;;;;;;;14.95;64.34;92817.31;2061756;69;20260;-74
2021/09/09 03:25:35;;;;;;;15.10;10.15;;;;;;;15.29;62.17;92817.41;2061907;69;20225;-74
2021/09/09 03:28:01;;;;;;;15.55;10.70;;;;;;;15.23;62.67;92805.81;2061880;69;20244;-75
2021/09/09 03:30:27;;;;;;;15.82;11.27;;;;;;;15.23;62.98;92808.66;2061863;69;20188;-75
2021/09/09 03:32:52;;;;;;;15.77;11.15;;;;;;;15.10;62.54;92815.13;2061944;69;20152;-74
2021/09/09 03:35:18;;;;;;;14.10;10.95;;;;;;;15.17;62.33;92811.22;2062004;69;20586;-74
2021/09/09 03:37:43;;;;;;;15.32;11.10;;;;;;;15.20;62.32;92812.75;2061727;69;20177;-75
2021/09/09 03:40:10;;;;;;;15.60;11.27;;;;;;;15.08;63.21;92803.69;2061897;69;20588;-74
2021/09/09 03:42:36;;;;;;;14.70;10.40;;;;;;;15.19;62.12;92811.28;2061309;69;20598;-75
2021/09/09 03:45:02;;;;;;;17.13;10.38;;;;;;;15.14;62.21;92810.38;2061935;69;20157;-74
2021/09/09 03:47:28;;;;;;;16.23;10.25;;;;;;;15.10;63.23;92812.28;2061789;69;20561;-74
2021/09/09 03:49:53;;;;;;;16.02;9.90;;;;;;;15.05;62.08;92805.69;2061889;69;20609;-74
2021/09/09 03:52:19;;;;;;;13.00;9.82;;;;;;;15.02;62.34;92809.81;2061698;69;20188;-74
2021/09/09 03:54:45;;;;;;;13.25;9.45;;;;;;;15.02;63.09;92806.25;2061810;69;20145;-74
2021/09/09 03:57:10;;;;;;;13.45;9.40;;;;;;;14.92;63.36;92810.06;2061790;69;20145;-74
2021/09/09 03:59:36;;;;;;;14.27;9.90;;;;;;;14.94;63.96;92809.44;2061928;69;20142;-74
2021/09/09 04:02:03;;;;;;;15.38;10.40;;;;;;;14.94;62.67;92812.28;2061761;69;20168;-74
2021/09/09 04:04:30;;;;;;;12.63;10.18;;;;;;;15.02;62.56;92809.81;2061875;69;20228;-74
2021/09/09 04:06:56;;;;;;;14.05;10.68;;;;;;;14.92;63.71;92809.34;2061853;69;20129;-73
2021/09/09 04:09:22;;;;;;;16.38;11.10;;;;;;;14.91;63.26;92817.13;2061876;69;20632;-74
2021/09/09 04:11:47;;;;;;;15.38;10.73;;;;;;;15.03;61.26;92824.72;2061336;69;20231;-74
2021/09/09 04:14:13;;;;;;;14.98;11.00;;;;;;;15.11;61.66;92817.31;2061764;69;20145;-74
2021/09/09 04:16:39;;;;;;;14.13;10.48;;;;;;;14.88;62.92;92826.88;2061760;69;20238;-74
2021/09/09 04:19:06;;;;;;;14.25;10.95;;;;;;;14.87;62.94;92821.88;2061769;69;20517;-75
2021/09/09 04:21:32;;;;;;;14.65;10.15;;;;;;;14.96;62.39;92823.72;2061589;69;20160;-74
2021/09/09 04:23:57;;;;;;;14.52;10.02;;;;;;;14.93;62.30;92825.69;2061757;69;20161;-74
2021/09/09 04:26:23;;;;;;;15.35;10.48;;;;;;;14.95;63.34;92830.75;2061956;69;20144;-74
2021/09/09 04:28:49;;;;;;;15.88;9.75;;;;;;;14.94;62.60;92830.03;2061232;69;20643;-75
2021/09/09 04:31:14;;;;;;;13.05;10.05;;;;;;;14.97;62.72;92828.00;2061236;69;20505;-75
2021/09/09 04:33:40;;;;;;;13.85;10.65;;;;;;;14.76;64.30;92822.78;2061179;69;20157;-75
2021/09/09 04:36:06;;;;;;;16.50;10.60;;;;;;;14.81;63.26;92810.97;2061551;69;20622;-75
2021/09/09 04:38:32;;;;;;;13.85;10.20;;;;;;;15.03;61.77;92813.38;2061605;69;20149;-74
2021/09/09 04:40:57;;;;;;;14.82;10.18;;;;;;;14.92;62.20;92824.25;2061634;69;20205;-75
2021/09/09 04:43:23;;;;;;;16.35;11.05;;;;;;;14.60;63.81;92812.13;2061865;69;20509;-75
2021/09/09 04:45:48;;;;;;;16.58;9.85;;;;;;;14.97;62.59;92817.41;2061113;69;20184;-75
2021/09/09 04:48:14;;;;;;;16.05;11.73;;;;;;;14.78;63.04;92812.25;2061755;69;20180;-75
2021/09/09 04:50:40;;;;;;;13.80;10.02;;;;;;;14.83;62.58;92813.16;2061693;69;20203;-76
2021/09/09 04:53:05;;;;;;;12.00;9.65;;;;;;;14.84;62.77;92815.34;2060977;69;20566;-75
2021/09/09 04:55:31;;;;;;;15.77;11.55;;;;;;;14.49;64.76;92813.75;2061864;69;20593;-75
2021/09/09 04:57:56;;;;;;;15.00;10.18;;;;;;;14.55;63.86;92809.72;2061703;69;20145;-75
2021/09/09 05:00:22;;;;;;;14.60;9.98;;;;;;;14.61;63.99;92810.75;2061681;69;20145;-72
2021/09/09 05:02:48;;;;;;;12.02;9.90;;;;;;;14.55;64.46;92807.63;2061692;69;20161;-72
2021/09/09 05:05:13;;;;;;;16.40;10.32;;;;;;;14.65;62.84;92810.19;2061687;69;20157;-74
2021/09/09 05:07:40;;;;;;;12.07;9.60;;;;;;;14.71;63.51;92813.34;2061572;69;20142;-73
2021/09/09 05:10:06;;;;;;;13.02;10.02;;;;;;;14.51;64.89;92815.19;2061698;69;20502;-75
2021/09/09 05:12:32;;;;;;;12.60;10.07;;;;;;;14.66;63.12;92818.09;2061651;69;20149;-75
2021/09/09 05:14:57;;;;;;;14.77;10.23;;;;;;;14.92;61.54;92821.41;2061245;69;20172;-74
2021/09/09 05:17:23;;;;;;;15.18;10.93;;;;;;;14.53;64.00;92821.69;2061616;69;20143;-74
2021/09/09 05:19:48;;;;;;;14.80;11.18;;;;;;;14.76;62.68;92829.16;2061631;69;20153;-75
2021/09/09 05:22:14;;;;;;;14.45;9.60;;;;;;;14.66;63.16;92820.16;2061480;69;20695;-75
2021/09/09 05:24:40;;;;;;;16.23;10.52;;;;;;;14.76;63.26;92825.59;2061615;69;20138;-74
2021/09/09 05:27:05;;;;;;;12.95;9.90;;;;;;;15.11;58.79;92825.09;2061616;69;20143;-75
2021/09/09 05:29:31;;;;;;;20.23;11.10;;;;;;;14.86;62.44;92826.81;2061639;69;20687;-74
2021/09/09 05:31:56;;;;;;;17.08;10.65;;;;;;;14.83;62.33;92827.34;2061598;69;20141;-73
2021/09/09 05:34:22;;;;;;;18.67;10.45;;;;;;;14.94;62.01;92824.34;2061534;69;20224;-74
2021/09/09 05:36:47;;;;;;;17.13;10.98;;;;;;;14.70;62.35;92815.41;2061449;69;20240;-74
2021/09/09 05:39:13;;;;;;;17.65;10.15;;;;;;;14.90;61.51;92829.09;2061650;69;20137;-74
2021/09/09 05:41:39;;;;;;;13.27;10.48;;;;;;;14.76;62.72;92820.66;2061647;69;20260;-74
2021/09/09 05:44:04;;;;;;;15.77;10.40;;;;;;;14.85;62.77;92824.63;2061652;69;20140;-74
2021/09/09 05:46:30;;;;;;;14.50;10.00;;;;;;;14.90;62.30;92818.50;2061090;69;20762;-74
2021/09/09 05:48:55;;;;;;;15.93;10.82;;;;;;;14.87;63.26;92822.59;2061735;69;20153;-74
2021/09/09 05:51:21;;;;;;;16.65;10.65;;;;;;;14.87;62.93;92822.59;2061611;69;20145;-74
2021/09/09 05:53:46;;;;;;;13.57;9.93;;;;;;;15.06;61.98;92821.34;2061550;69;20515;-74
2021/09/09 05:56:12;;;;;;;18.05;11.40;;;;;;;14.89;62.47;92824.78;2061677;69;20187;-75
2021/09/09 05:58:38;;;;;;;17.52;11.30;;;;;;;15.10;61.31;92818.69;2061554;69;20161;-75
2021/09/09 06:01:05;;;;;;;16.42;10.80;;;;;;;15.04;62.58;92818.41;2061659;69;20210;-74
2021/09/09 06:03:31;;;;;;;19.92;11.20;;;;;;;14.60;64.15;92823.44;2061763;69;20172;-74
2021/09/09 06:06:03;;;;;;;17.73;11.57;;;;;;;14.83;63.69;92822.41;2061567;69;20602;-74
2021/09/09 06:08:30;;;;;;;16.13;11.20;;;;;;;14.96;63.26;92823.72;2061391;69;20208;-74
2021/09/09 06:10:56;;;;;;;17.05;12.00;;;;;;;15.01;62.08;92822.53;2061549;69;20188;-73
2021/09/09 06:13:22;;;;;;;15.82;11.43;;;;;;;15.09;60.71;92827.84;2061538;69;20188;-73
2021/09/09 06:15:47;;;;;;;21.55;16.08;;;;;;;14.82;64.48;92831.56;2061467;69;20165;-75
2021/09/09 06:18:13;;;;;;;23.85;17.27;;;;;;;15.07;61.32;92842.63;2061533;69;20191;-73
2021/09/09 06:20:38;;;;;;;20.88;15.40;;;;;;;15.31;60.25;92833.81;2061685;69;20156;-74
2021/09/09 06:23:04;;;;;;;22.20;16.25;;;;;;;15.32;61.68;92835.28;2061370;69;20145;-74
2021/09/09 06:25:30;;;;;;;22.05;13.88;;;;;;;15.20;62.07;92836.16;2061486;69;20196;-74
2021/09/09 06:27:55;;;;;;;21.85;12.52;;;;;;;15.03;63.00;92838.88;2061502;69;20145;-74
2021/09/09 06:30:21;;;;;;;18.20;12.95;;;;;;;15.15;62.55;92828.13;2061482;69;20510;-73
2021/09/09 06:32:47;;;;;;;14.98;11.90;;;;;;;15.18;61.21;92824.00;2061550;69;20581;-74
2021/09/09 06:35:12;;;;;;;21.42;12.60;;;;;;;15.21;62.02;92825.53;2061462;69;20213;-74
2021/09/09 06:37:39;;;;;;;16.13;12.60;;;;;;;15.19;63.55;92826.19;2061365;69;20689;-73
2021/09/09 06:40:06;;;;;;;17.15;12.23;;;;;;;15.28;63.58;92824.47;2061582;69;20203;-74
2021/09/09 06:42:31;;;;;;;14.25;11.18;;;;;;;15.49;58.10;92823.28;2061473;69;20137;-75
2021/09/09 06:44:57;;;;;;;15.88;10.35;;;;;;;15.50;60.08;92824.75;2061526;69;20133;-74
2021/09/09 06:47:22;;;;;;;15.40;10.07;;;;;;;15.57;60.83;92822.91;2061465;69;20181;-75
2021/09/09 06:49:48;;;;;;;15.18;10.60;;;;;;;15.68;61.03;92825.56;2061424;69;20177;-76
2021/09/09 06:52:15;;;;;;;13.43;10.07;;;;;;;16.12;58.49;92819.63;2061259;69;20141;-77
2021/09/09 06:54:41;;;;;;;14.43;10.30;;;;;;;16.49;58.83;92825.44;2061783;69;20606;-77
2021/09/09 06:57:07;;;;;;;12.63;9.23;;;;;;;16.77;58.42;92828.72;2061452;69;20145;-76
2021/09/09 06:59:33;;;;;;;15.15;10.25;;;;;;;16.98;58.25;92816.03;2062017;69;20141;-76
2021/09/09 07:01:58;;;;;;;15.02;10.55;;;;;;;16.89;58.53;92828.47;2061952;69;20153;-76
2021/09/09 07:04:24;;;;;;;14.45;9.77;;;;;;;17.52;57.95;92818.78;2061994;69;20157;-76
2021/09/09 07:06:49;;;;;;;11.63;9.38;;;;;;;17.93;55.50;92817.41;2061846;69;20152;-75
2021/09/09 07:09:15;;;;;;;15.00;9.60;;;;;;;17.84;55.28;92807.84;2061953;69;20141;-77
2021/09/09 07:11:40;;;;;;;11.55;9.27;;;;;;;18.16;54.12;92811.09;2061997;69;20156;-77
2021/09/09 07:14:06;;;;;;;15.13;9.70;;;;;;;18.18;53.27;92811.16;2061413;69;20321;-77
2021/09/09 07:16:32;;;;;;;13.85;9.68;;;;;;;18.25;54.19;92812.84;2061942;69;20613;-78
2021/09/09 07:18:57;;;;;;;14.10;8.95;;;;;;;18.65;53.61;92815.59;2061914;69;20223;-78
2021/09/09 07:21:23;;;;;;;12.77;9.10;;;;;;;20.01;50.40;92821.13;2061893;69;20220;-76
2021/09/09 07:23:49;;;;;;;13.05;8.90;;;;;;;20.20;49.43;92823.09;2061797;69;20494;-78
2021/09/09 07:26:15;;;;;;;16.02;9.50;;;;;;;19.75;48.21;92818.28;2061907;69;20610;-78
2021/09/09 07:28:42;;;;;;;23.60;8.90;;;;;;;19.92;50.32;92816.59;2061889;69;20233;-75
2021/09/09 07:31:08;;;;;;;16.77;9.68;;;;;;;20.20;49.74;92822.38;2062050;69;20149;-78
2021/09/09 07:33:33;;;;;;;15.27;9.60;;;;;;;20.32;50.08;92822.69;2061904;69;20176;-79
2021/09/09 07:35:59;;;;;;;12.73;9.18;;;;;;;20.49;49.35;92824.63;2061391;69;20160;-78
2021/09/09 07:38:25;;;;;;;11.18;8.10;;;;;;;20.71;48.52;92823.72;2061792;69;20149;-79
2021/09/09 07:40:51;;;;;;;16.23;9.23;;;;;;;20.52;49.44;92823.25;2061808;69;20219;-77
2021/09/09 07:43:16;;;;;;;12.45;8.75;;;;;;;21.33;46.64;92823.09;2061877;69;20241;-79
2021/09/09 07:45:42;;;;;;;13.60;8.38;;;;;;;21.09;48.76;92826.09;2061821;69;20184;-77
2021/09/09 07:48:08;;;;;;;12.55;8.10;;;;;;;21.48;48.52;92825.56;2061869;69;20248;-77
2021/09/09 07:50:34;;;;;;;11.40;8.50;;;;;;;21.79;48.89;92829.09;2061973;69;20215;-78
2021/09/09 07:52:59;;;;;;;10.23;8.10;;;;;;;22.15;46.00;92814.09;2061793;69;20229;-81
2021/09/09 07:55:25;;;;;;;12.75;8.20;;;;;;;22.57;44.39;92823.50;2062784;69;20149;-78
2021/09/09 07:57:51;;;;;;;13.45;7.95;;;;;;;23.57;42.58;92828.00;2064795;69;20148;-76
2021/09/09 08:00:17;;;;;;;9.45;7.53;;;;;;;24.80;39.55;92824.50;2062288;69;20143;-78
2021/09/09 08:02:43;;;;;;;11.52;7.95;;;;;;;23.79;42.97;92827.63;2061980;69;20181;-81
2021/09/09 08:05:09;;;;;;;14.05;8.18;;;;;;;23.79;42.89;92815.41;2061883;69;20272;-78
2021/09/09 08:07:42;;;;;;;12.77;8.65;;;;;;;23.91;43.34;92818.41;2061699;69;20137;-77
2021/09/09 08:10:10;;;;;;;11.95;8.70;;;;;;;22.88;43.78;92812.56;2061722;69;20245;-75
2021/09/09 08:12:35;;;;;;;10.93;7.85;;;;;;;23.93;43.84;92818.47;2061289;69;20593;-78
2021/09/09 08:15:01;;;;;;;10.40;8.02;;;;;;;23.30;44.72;92815.41;2061793;69;20143;-77
2021/09/09 08:17:28;;;;;;;10.90;7.95;;;;;;;23.84;42.27;92816.91;2061823;69;20165;-76
2021/09/09 08:19:53;;;;;;;10.05;8.13;;;;;;;22.78;43.71;92815.25;2061785;69;20609;-75
2021/09/09 08:22:19;;;;;;;12.73;7.25;;;;;;;25.51;38.50;92817.91;2061666;69;20175;-77
2021/09/09 08:24:44;;;;;;;9.35;7.40;;;;;;;27.22;33.81;92815.00;2061940;69;20161;-76
2021/09/09 08:27:10;;;;;;;9.25;7.07;;;;;;;27.22;34.70;92823.66;2061806;69;20628;-78
2021/09/09 08:29:35;;;;;;;8.30;7.18;;;;;;;27.38;33.98;92820.75;2061866;69;20149;-76
2021/09/09 08:32:01;;;;;;;9.05;7.20;;;;;;;25.58;38.93;92816.50;2061540;69;20141;-76
2021/09/09 08:34:28;;;;;;;9.82;7.00;;;;;;;24.42;41.25;92809.69;2059801;69;20621;-77
2021/09/09 08:36:53;;;;;;;10.05;7.43;;;;;;;25.00;38.86;92809.56;2060510;69;20233;-75
2021/09/09 08:39:19;;;;;;;8.48;6.80;;;;;;;25.76;36.62;92807.28;2058882;69;20232;-77
2021/09/09 08:41:45;;;;;;;8.35;6.70;;;;;;;25.62;36.34;92810.78;2059289;69;20164;-76
2021/09/09 08:44:11;;;;;;;9.25;7.20;;;;;;;25.51;35.09;92807.09;2061880;69;20142;-76
2021/09/09 08:46:37;;;;;;;8.35;7.45;;;;;;;26.00;38.40;92804.53;2061760;69;20236;-77
2021/09/09 08:49:03;;;;;;;10.43;7.00;;;;;;;28.92;32.27;92804.41;2061917;69;20145;-79
2021/09/09 08:51:28;;;;;;;8.00;6.85;;;;;;;26.47;36.40;92793.19;2061677;69;20169;-78
2021/09/09 08:53:56;;;;;;;8.32;6.60;;;;;;;29.45;30.45;92803.31;2060074;69;20185;-78
2021/09/09 08:56:21;;;;;;;7.72;6.53;;;;;;;26.60;32.49;92797.53;2061971;69;20184;-76
2021/09/09 08:58:47;;;;;;;7.60;6.18;;;;;;;27.59;33.61;92781.00;2059690;69;20627;-78
2021/09/09 09:01:18;;;;;;;6.95;6.25;;;;;;;27.69;34.56;92789.66;2061161;69;20232;-79
2021/09/09 09:03:52;;;;;;;7.97;7.17;;;;;;;26.59;32.25;92786.72;2061890;69;20165;-79
2021/09/09 09:06:24;;;;;;;9.63;7.03;;;;;;;27.93;33.02;92788.91;2061747;69;20649;-82
2021/09/09 09:08:51;;;;;;;9.25;6.30;;;;;;;28.87;32.45;92785.59;2061148;69;20160;-79
2021/09/09 09:11:30;;;;;;;7.03;6.32;;;;;;;27.18;31.78;92777.44;2061706;69;20242;-79
2021/09/09 09:13:56;;;;;;;7.60;6.75;;;;;;;27.41;32.93;92784.63;2061819;69;20195;-77
2021/09/09 09:16:24;;;;;;;8.07;6.72;;;;;;;27.50;31.82;92771.63;2061727;69;20529;-75
2021/09/09 09:18:49;;;;;;;7.88;6.75;;;;;;;27.28;30.91;92780.31;2061683;69;20149;-77
2021/09/09 09:21:17;;;;;;;7.28;6.22;;;;;;;27.84;33.92;92773.72;2061592;69;20141;-79
2021/09/09 09:23:47;;;;;;;6.93;6.28;;;;;;;28.54;31.94;92777.09;2061093;69;20141;-80
2021/09/09 09:26:13;;;;;;;7.22;6.53;;;;;;;28.95;30.20;92773.97;2061917;69;20149;-77
2021/09/09 09:29:00;;;;;;;9.63;6.55;;;;;;;29.98;30.36;92765.84;2061736;69;20133;-83
2021/09/09 09:31:28;;;;;;;7.70;6.88;;;;;;;29.48;29.51;92761.97;2061412;69;20172;-82
2021/09/09 09:34:01;;;;;;;7.85;6.22;;;;;;;29.68;29.55;92766.16;2061824;69;20256;-81
2021/09/09 09:36:32;;;;;;;9.90;6.95;;;;;;;28.88;30.36;92752.28;2061749;69;20598;-79
2021/09/09 09:39:07;;;;;;;8.60;6.35;;;;;;;29.68;30.71;92755.25;2061781;69;20149;-82
2021/09/09 09:41:33;;;;;;;7.35;6.65;;;;;;;29.13;29.73;92755.72;2062169;69;20164;-80
2021/09/09 09:44:06;;;;;;;7.43;6.68;;;;;;;30.38;30.73;92755.94;2061816;69;20141;-82
2021/09/09 09:46:38;;;;;;;7.18;6.47;;;;;;;30.97;29.67;92756.59;2061777;69;20141;-85
2021/09/09 09:49:24;;;;;;;6.90;6.20;;;;;;;30.84;30.45;92751.00;2061955;69;20138;-81
2021/09/09 09:51:50;;;;;;;8.43;6.45;;;;;;;31.85;28.50;92750.13;2061919;69;20529;-80
2021/09/09 09:54:17;;;;;;;7.72;6.32;;;;;;;31.65;27.31;92745.34;2061884;69;20165;-82
2021/09/09 09:56:45;;;;;;;6.53;5.93;;;;;;;30.86;28.08;92748.03;2061842;69;20149;-82
2021/09/09 09:59:11;;;;;;;6.88;5.80;;;;;;;31.23;27.70;92743.84;2061709;69;20148;-82
2021/09/09 10:01:37;;;;;;;7.70;6.25;;;;;;;30.86;28.26;92741.50;2061920;69;20133;-82
2021/09/09 10:04:06;;;;;;;7.10;5.60;;;;;;;31.37;27.96;92744.34;2061790;69;20167;-83
2021/09/09 10:06:33;;;;;;;9.77;6.00;;;;;;;31.98;27.52;92736.75;2061511;69;20691;-84
2021/09/09 10:09:00;;;;;;;7.95;6.28;;;;;;;31.84;27.60;92739.91;2061739;69;20184;-87
2021/09/09 10:11:27;;;;;;;6.85;6.20;;;;;;;31.73;27.60;92738.66;2061800;69;20137;-79
2021/09/09 10:13:54;;;;;;;7.93;6.40;;;;;;;30.76;28.63;92732.97;2061733;69;20227;-84
2021/09/09 10:16:23;;;;;;;7.28;6.20;;;;;;;31.96;27.83;92733.16;2061774;69;20161;-77
2021/09/09 10:18:49;;;;;;;6.68;5.97;;;;;;;32.37;27.52;92725.06;2061694;69;20173;-85
2021/09/09 10:21:41;;;;;;;6.80;6.20;;;;;;;31.88;26.91;92731.13;2061427;69;20506;-86
2021/09/09 10:24:18;;;;;;;7.45;6.07;;;;;;;31.62;27.08;92721.41;2062268;69;20248;-83
2021/09/09 10:26:46;;;;;;;8.32;6.20;;;;;;;31.96;27.78;92716.41;2061246;69;20138;-79
2021/09/09 10:29:47;;;;;;;6.60;5.90;;;;;;;31.76;26.46;92713.88;2061749;69;20203;-79
2021/09/09 10:32:31;;;;;;;8.63;6.25;;;;;;;31.46;26.42;92715.84;2061727;69;20148;-81
2021/09/09 10:35:17;;;;;;;8.98;5.88;;;;;;;32.20;27.25;92712.28;2062199;69;20141;-81
2021/09/09 10:37:58;;;;;;;7.00;5.32;;;;;;;32.87;26.90;92707.22;2060704;69;20184;-81
2021/09/09 10:40:35;;;;;;;6.88;6.03;;;;;;;33.94;24.18;92708.25;2058080;69;20153;-79
2021/09/09 10:43:26;;;;;;;6.40;5.40;;;;;;;34.22;24.77;92700.91;2058025;69;20150;-81
2021/09/09 10:46:05;;;;;;;9.45;5.95;;;;;;;35.37;24.48;92704.75;2056121;69;20146;-81
2021/09/09 10:48:31;;;;;;;7.18;5.65;;;;;;;34.14;25.33;92698.97;2058794;69;20223;-83
2021/09/09 10:51:10;;;;;;;6.95;5.80;;;;;;;33.91;24.71;92701.75;2058756;69;20154;-84
2021/09/09 10:53:38;;;;;;;8.35;4.97;;;;;;;33.46;24.63;92694.19;2058662;69;20154;-84
2021/09/09 10:56:23;;;;;;;7.65;5.78;;;;;;;34.48;23.88;92684.84;2058893;69;20177;-86
2021/09/09 10:59:10;;;;;;;6.88;5.80;;;;;;;34.86;23.47;92695.34;2058818;69;20157;-84
2021/09/09 11:01:37;;;;;;;6.88;5.13;;;;;;;36.66;21.71;92689.28;2058791;69;20145;-80
2021/09/09 11:04:03;;;;;;;8.48;5.10;;;;;;;36.28;21.52;92691.41;2058840;69;20258;-85
2021/09/09 11:06:29;;;;;;;6.00;4.93;;;;;;;38.93;20.19;92688.56;2058000;69;20253;-84
2021/09/09 11:08:56;;;;;;;8.05;4.93;;;;;;;40.95;18.84;92690.19;2058747;69;20150;-85
2021/09/09 11:11:28;;;;;;;6.10;4.57;;;;;;;41.92;17.73;92689.13;2058734;69;20524;-85
2021/09/09 11:14:08;;;;;;;;;;;;;;;41.62;18.00;92684.16;2059054;69;20200;-84
2021/09/09 11:16:36;;;;;;;6.80;4.88;;;;;;;41.47;17.45;92683.56;2058709;69;20053;-80
2021/09/09 11:19:03;;;;;;;5.88;4.45;;;;;;;43.17;17.11;92683.00;2058910;69;20186;-90
2021/09/09 11:21:32;;;;;;;10.00;4.68;;;;;;;42.63;15.40;92676.00;2058879;69;20283;-86
2021/09/09 11:24:00;;;;;;;4.40;4.00;;;;;;;44.36;15.55;92678.88;2058908;69;20207;-87